createdAt,value
2019-03-12T00:01:20.265Z,101713.94
2019-03-12T00:03:48.192Z,101706.34
2019-03-12T00:06:15.988Z,101711.31
2019-03-12T00:08:43.749Z,101712.20
2019-03-12T00:11:11.529Z,101712.63
2019-03-12T00:13:55.729Z,101713.47
2019-03-12T00:16:23.500Z,101717.14
2019-03-12T00:18:51.289Z,101723.83
2019-03-12T00:21:19.038Z,101721.63
2019-03-12T00:27:25.998Z,101725.23
2019-03-12T00:29:53.750Z,101728.73
2019-03-12T00:32:21.588Z,101720.72
2019-03-12T00:34:49.333Z,101720.72
2019-03-12T00:37:17.123Z,101729.65
2019-03-12T00:39:44.917Z,101730.08
2019-03-12T00:42:13.121Z,101731.03
2019-03-12T00:44:40.949Z,101729.23
2019-03-12T00:47:11.768Z,101733.23
2019-03-12T00:50:01.312Z,101742.66
2019-03-12T00:52:29.128Z,101738.64
2019-03-12T00:54:56.931Z,101742.70
2019-03-12T00:57:24.743Z,101744.92
2019-03-12T00:59:52.505Z,101737.80
2019-03-12T01:02:20.332Z,101743.13
2019-03-12T01:04:48.165Z,101742.66
2019-03-12T01:07:15.946Z,101747.59
2019-03-12T01:09:43.836Z,101744.89
2019-03-12T01:12:11.652Z,101746.67
2019-03-12T01:14:39.419Z,101685.28
2019-03-12T01:17:07.296Z,101741.36
2019-03-12T01:20:06.104Z,101748.94
2019-03-12T01:22:33.880Z,101739.16
2019-03-12T01:25:01.675Z,101738.70
2019-03-12T01:27:29.501Z,101733.83
2019-03-12T01:29:57.258Z,101728.89
2019-03-12T01:32:25.044Z,101719.97
2019-03-12T01:34:52.814Z,101720.88
2019-03-12T01:38:00.708Z,101714.19
2019-03-12T01:40:28.556Z,101717.75
2019-03-12T01:42:56.338Z,101720.41
2019-03-12T01:45:24.332Z,101722.22
2019-03-12T01:47:52.096Z,101724.87
2019-03-12T01:50:19.872Z,101719.06
2019-03-12T01:52:47.689Z,101721.31
2019-03-12T01:58:44.005Z,101724.92
2019-03-12T02:01:11.744Z,101730.27
2019-03-12T02:03:39.515Z,101732.03
2019-03-12T02:06:07.285Z,101727.14
2019-03-12T02:08:35.054Z,101726.69
2019-03-12T02:11:02.905Z,101721.34
2019-03-12T02:13:30.699Z,101720.93
2019-03-12T02:16:02.184Z,101726.30
2019-03-12T02:18:29.952Z,101719.14
2019-03-12T02:20:59.615Z,101716.05
2019-03-12T02:23:29.059Z,101719.61
2019-03-12T02:25:57.129Z,101709.33
2019-03-12T02:28:24.891Z,101706.61
2019-03-12T02:30:52.751Z,101701.30
2019-03-12T02:33:20.610Z,101704.42
2019-03-12T02:35:48.378Z,101698.63
2019-03-12T02:38:16.140Z,101702.64
2019-03-12T02:40:43.909Z,101693.68
2019-03-12T02:43:11.694Z,101693.67
2019-03-12T02:45:39.487Z,101689.67
2019-03-12T02:48:07.323Z,101685.23
2019-03-12T02:50:35.160Z,101670.96
2019-03-12T02:53:02.912Z,101678.13
2019-03-12T02:55:30.701Z,101679.90
2019-03-12T02:58:05.676Z,101668.27
2019-03-12T03:00:33.526Z,101675.86
2019-03-12T03:03:01.505Z,101659.80
2019-03-12T03:05:29.461Z,101658.89
2019-03-12T03:08:02.862Z,101660.23
2019-03-12T03:10:30.619Z,101673.63
2019-03-12T03:12:58.471Z,101676.33
2019-03-12T03:15:27.458Z,101674.54
2019-03-12T03:17:55.258Z,101675.86
2019-03-12T03:20:23.027Z,101633.16
2019-03-12T03:22:50.834Z,101677.12
2019-03-12T03:25:18.577Z,101680.72
2019-03-12T03:27:46.343Z,101684.25
2019-03-12T03:30:15.846Z,101693.23
2019-03-12T03:32:43.668Z,101691.93
2019-03-12T03:35:36.758Z,101688.77
2019-03-12T03:38:04.564Z,101691.40
2019-03-12T03:40:32.393Z,101689.63
2019-03-12T03:46:17.725Z,101669.09
2019-03-12T03:48:45.477Z,101670.00
2019-03-12T03:51:13.256Z,101667.75
2019-03-12T03:53:41.074Z,101667.83
2019-03-12T03:56:09.109Z,101668.25
2019-03-12T03:58:36.952Z,101657.52
2019-03-12T04:01:04.722Z,101658.44
2019-03-12T04:03:32.546Z,101661.55
2019-03-12T04:06:00.563Z,101657.11
2019-03-12T04:08:28.400Z,101662.45
2019-03-12T04:10:56.190Z,101659.33
2019-03-12T04:13:24.027Z,101669.58
2019-03-12T04:15:52.062Z,101674.06
2019-03-12T04:18:20.005Z,101673.20
2019-03-12T04:20:48.531Z,101670.50
2019-03-12T04:23:16.620Z,101666.50
2019-03-12T04:25:44.402Z,101666.96
2019-03-12T04:28:12.154Z,101655.79
2019-03-12T04:30:40.251Z,101655.80
2019-03-12T04:33:12.588Z,101648.21
2019-03-12T04:35:40.353Z,101650.45
2019-03-12T04:38:08.586Z,101645.49
2019-03-12T04:40:36.356Z,101647.30
2019-03-12T04:43:22.220Z,101650.84
2019-03-12T04:45:49.972Z,101650.87
2019-03-12T04:48:24.746Z,101649.06
2019-03-12T04:50:52.575Z,101642.83
2019-03-12T04:53:20.418Z,101643.27
2019-03-12T04:55:48.325Z,101644.17
2019-03-12T04:58:16.210Z,101641.92
2019-03-12T05:00:44.062Z,101635.65
2019-03-12T05:03:11.962Z,101637.89
2019-03-12T05:05:40.029Z,101630.77
2019-03-12T05:08:08.821Z,101628.05
2019-03-12T05:10:36.756Z,101628.08
2019-03-12T05:13:04.584Z,101623.59
2019-03-12T05:15:32.440Z,101610.21
2019-03-12T05:18:01.156Z,101598.14
2019-03-12T05:20:29.043Z,101606.61
2019-03-12T05:22:57.116Z,101603.92
2019-03-12T05:25:26.177Z,101609.77
2019-03-12T05:27:54.145Z,101603.07
2019-03-12T05:30:22.040Z,101607.50
2019-03-12T05:32:49.866Z,101602.97
2019-03-12T05:35:18.609Z,101598.09
2019-03-12T05:37:46.416Z,101593.63
2019-03-12T05:40:14.343Z,101599.45
2019-03-12T05:42:42.344Z,101592.27
2019-03-12T05:45:10.438Z,101596.22
2019-03-12T05:47:39.331Z,101590.94
2019-03-12T05:50:07.539Z,101589.58
2019-03-12T05:52:35.435Z,101593.21
2019-03-12T05:55:05.491Z,101591.44
2019-03-12T05:57:34.310Z,101589.16
2019-03-12T06:00:02.238Z,101596.23
2019-03-12T06:02:30.035Z,101594.08
2019-03-12T06:04:57.882Z,101591.80
2019-03-12T06:07:26.553Z,101590.40
2019-03-12T06:09:54.381Z,101593.97
2019-03-12T06:12:22.194Z,101595.73
2019-03-12T06:14:50.150Z,101591.31
2019-03-12T06:17:18.092Z,101585.87
2019-03-12T06:19:45.922Z,101589.91
2019-03-12T06:22:13.980Z,101591.24
2019-03-12T06:28:05.120Z,101581.86
2019-03-12T06:30:51.969Z,101568.89
2019-03-12T06:33:24.655Z,101569.83
2019-03-12T06:35:59.210Z,101578.73
2019-03-12T06:38:48.009Z,101572.98
2019-03-12T06:41:31.564Z,101579.19
2019-03-12T06:50:41.731Z,101568.74
2019-03-12T06:56:54.550Z,101568.89
2019-03-12T06:59:28.895Z,101568.36
2019-03-12T07:02:28.095Z,101563.09
2019-03-12T07:05:15.977Z,101568.80
2019-03-12T07:08:06.560Z,101560.34
2019-03-12T07:11:14.226Z,101545.58
2019-03-12T07:13:57.306Z,101554.01
2019-03-12T07:16:39.889Z,101555.28
2019-03-12T07:19:24.559Z,101544.21
2019-03-12T07:22:14.503Z,101521.56
2019-03-12T07:25:07.735Z,101537.12
2019-03-12T07:28:00.209Z,101533.08
2019-03-12T07:30:57.449Z,101527.33
2019-03-12T07:34:02.190Z,101530.45
2019-03-12T07:36:40.617Z,101530.96
2019-03-12T07:39:26.559Z,101538.49
2019-03-12T07:42:03.647Z,101534.39
2019-03-12T07:44:49.772Z,101526.77
2019-03-12T07:47:37.347Z,101515.75
2019-03-12T07:50:27.707Z,101512.56
2019-03-12T07:53:15.261Z,101510.36
2019-03-12T07:56:00.728Z,101509.41
2019-03-12T07:58:46.604Z,101493.33
2019-03-12T08:01:26.874Z,101491.92
2019-03-12T08:04:05.657Z,101479.84
2019-03-12T08:06:49.172Z,101471.52
2019-03-12T08:09:24.670Z,101466.09
2019-03-12T08:12:10.459Z,101461.66
2019-03-12T08:14:48.378Z,101453.24
2019-03-12T08:17:39.051Z,101450.11
2019-03-12T08:20:23.700Z,101446.58
2019-03-12T08:23:15.855Z,101434.42
2019-03-12T08:26:15.302Z,101424.97
2019-03-12T08:29:17.808Z,101428.58
2019-03-12T08:32:18.335Z,101423.39
2019-03-12T08:35:01.006Z,101418.48
2019-03-12T08:37:35.405Z,101414.80
2019-03-12T08:40:29.285Z,101403.68
2019-03-12T08:43:11.923Z,101402.23
2019-03-12T08:46:02.372Z,101392.30
2019-03-12T08:48:55.425Z,101388.20
2019-03-12T08:51:41.791Z,101382.92
2019-03-12T08:54:53.501Z,101369.23
2019-03-12T08:57:35.687Z,101373.36
2019-03-12T09:00:17.312Z,101371.20
2019-03-12T09:03:00.873Z,101367.06
2019-03-12T09:06:06.796Z,101359.06
2019-03-12T09:08:45.920Z,101350.70
2019-03-12T09:11:36.343Z,101347.50
2019-03-12T09:14:15.444Z,101352.37
2019-03-12T09:17:01.839Z,101331.91
2019-03-12T09:19:48.733Z,101314.02
2019-03-12T09:22:42.443Z,101306.83
2019-03-12T09:25:30.139Z,101304.16
2019-03-12T09:28:18.127Z,101301.48
2019-03-12T09:31:04.259Z,101296.08
2019-03-12T09:33:43.289Z,101293.39
2019-03-12T09:36:31.351Z,101279.11
2019-03-12T09:39:17.568Z,101267.55
2019-03-12T09:42:03.622Z,101256.17
2019-03-12T09:44:59.038Z,101261.21
2019-03-12T09:47:37.466Z,101252.81
2019-03-12T09:50:11.398Z,101248.27
2019-03-12T09:52:57.840Z,101246.52
2019-03-12T09:55:46.464Z,101240.67
2019-03-12T09:58:32.723Z,101231.66
2019-03-12T10:01:14.190Z,101216.52
2019-03-12T10:03:51.497Z,101207.98
2019-03-12T10:06:47.557Z,101195.09
2019-03-12T10:09:46.203Z,101192.00
2019-03-12T10:12:21.573Z,101197.80
2019-03-12T10:15:11.270Z,101204.63
2019-03-12T10:17:58.029Z,101193.33
2019-03-12T10:21:00.324Z,101188.11
2019-03-12T10:23:53.338Z,101182.94
2019-03-12T10:26:27.582Z,101182.61
2019-03-12T10:29:09.980Z,101171.48
2019-03-12T10:31:44.324Z,101168.50
2019-03-12T10:34:30.339Z,101168.20
2019-03-12T10:37:16.685Z,101161.96
2019-03-12T10:40:20.044Z,101162.95
2019-03-12T10:43:01.513Z,101157.73
2019-03-12T10:46:00.589Z,101161.31
2019-03-12T10:48:28.880Z,101148.16
2019-03-12T10:50:56.636Z,101141.41
2019-03-12T10:53:24.380Z,101139.73
2019-03-12T10:55:52.161Z,101127.80
2019-03-12T10:58:20.077Z,101130.59
2019-03-12T11:00:47.876Z,101123.24
2019-03-12T11:03:15.836Z,101117.14
2019-03-12T11:05:46.135Z,101111.53
2019-03-12T11:08:13.216Z,101102.81
2019-03-12T11:10:41.034Z,101100.12
2019-03-12T11:13:08.781Z,101081.13
2019-03-12T11:15:36.571Z,101083.29
2019-03-12T11:18:04.488Z,101079.73
2019-03-12T11:20:33.508Z,101074.87
2019-03-12T11:23:01.264Z,101065.05
2019-03-12T11:25:29.015Z,101068.03
2019-03-12T11:27:56.771Z,101066.58
2019-03-12T11:30:24.704Z,101052.58
2019-03-12T11:32:52.457Z,101047.64
2019-03-12T11:35:20.233Z,101042.11
2019-03-12T11:37:48.011Z,101031.46
2019-03-12T11:40:16.705Z,101040.09
2019-03-12T11:42:44.616Z,101025.36
2019-03-12T11:45:16.359Z,101031.61
2019-03-12T11:47:42.242Z,101025.92
2019-03-12T11:50:11.276Z,101024.54
2019-03-12T11:52:39.113Z,101015.09
2019-03-12T11:55:06.897Z,101007.31
2019-03-12T11:57:34.728Z,100988.03
2019-03-12T12:00:03.493Z,100970.21
2019-03-12T12:02:31.313Z,100961.52
2019-03-12T12:04:59.133Z,100945.55
2019-03-12T12:07:26.975Z,100941.16
2019-03-12T12:09:54.919Z,100946.73
2019-03-12T12:12:22.736Z,100939.30
2019-03-12T12:14:50.505Z,100930.37
2019-03-12T12:17:18.307Z,100929.54
2019-03-12T12:19:46.089Z,100902.18
2019-03-12T12:22:13.862Z,100887.52
2019-03-12T12:24:41.780Z,100892.48
2019-03-12T12:27:09.582Z,100892.76
2019-03-12T12:29:38.442Z,100876.36
2019-03-12T12:32:06.193Z,100856.66
2019-03-12T12:34:33.969Z,100848.28
2019-03-12T12:37:01.772Z,100835.41
2019-03-12T12:39:29.787Z,100836.17
2019-03-12T12:41:57.557Z,100833.05
2019-03-12T12:44:25.389Z,100812.07
2019-03-12T12:46:53.224Z,100812.44
2019-03-12T12:49:20.969Z,100793.88
2019-03-12T12:51:48.816Z,100792.55
2019-03-12T12:54:16.641Z,100775.77
2019-03-12T12:56:44.649Z,100774.23
2019-03-12T12:59:12.425Z,100769.89
2019-03-12T13:01:40.188Z,100766.59
2019-03-12T13:04:07.969Z,100762.20
2019-03-12T13:06:35.751Z,100771.36
2019-03-12T13:09:04.672Z,100764.05
2019-03-12T13:11:32.438Z,100757.34
2019-03-12T13:14:00.192Z,100751.05
2019-03-12T13:16:27.969Z,100735.86
2019-03-12T13:18:55.699Z,100730.19
2019-03-12T13:21:23.486Z,100709.52
2019-03-12T13:23:51.232Z,100699.69
2019-03-12T13:26:19.096Z,100690.31
2019-03-12T13:28:46.916Z,100669.84
2019-03-12T13:31:14.695Z,100657.57
2019-03-12T13:33:42.480Z,100663.98
2019-03-12T13:36:15.075Z,100668.58
2019-03-12T13:38:46.198Z,100659.03
2019-03-12T13:41:12.322Z,100650.09
2019-03-12T13:43:40.147Z,100641.22
2019-03-12T13:46:08.188Z,100623.95
2019-03-12T13:48:35.949Z,100620.84
2019-03-12T13:51:03.696Z,100614.73
2019-03-12T13:53:31.453Z,100622.83
2019-03-12T13:55:59.434Z,100605.72
2019-03-12T13:58:27.296Z,100608.23
2019-03-12T14:00:55.445Z,100583.48
2019-03-12T14:03:23.750Z,100586.92
2019-03-12T14:05:56.069Z,100574.41
2019-03-12T14:08:24.326Z,100596.50
2019-03-12T14:10:52.164Z,100591.08
2019-03-12T14:13:19.988Z,100578.39
2019-03-12T14:15:47.768Z,100556.20
2019-03-12T14:18:15.510Z,100549.76
2019-03-12T14:20:44.036Z,100534.55
2019-03-12T14:23:12.636Z,100537.97
2019-03-12T14:25:40.399Z,100530.36
2019-03-12T14:28:08.148Z,100530.64
2019-03-12T14:30:35.984Z,100526.21
2019-03-12T14:33:03.797Z,100522.56
2019-03-12T14:35:31.878Z,100503.09
2019-03-12T14:37:59.631Z,100503.61
2019-03-12T14:40:27.517Z,100484.26
2019-03-12T14:42:55.286Z,100480.99
2019-03-12T14:45:24.380Z,100482.03
2019-03-12T14:47:52.165Z,100468.50
2019-03-12T14:50:20.002Z,100469.26
2019-03-12T14:52:48.930Z,100465.39
2019-03-12T14:55:16.747Z,100451.85
2019-03-12T14:57:44.495Z,100436.83
2019-03-12T15:00:16.484Z,100435.14
2019-03-12T15:02:44.252Z,100436.18
2019-03-12T15:05:11.991Z,100421.39
2019-03-12T15:07:39.739Z,100413.63
2019-03-12T15:10:08.080Z,100408.52
2019-03-12T15:12:35.828Z,100391.81
2019-03-12T15:15:03.714Z,100390.66
2019-03-12T15:17:31.533Z,100387.17
2019-03-12T15:19:59.474Z,100384.29
2019-03-12T15:22:27.228Z,100379.15
2019-03-12T15:24:54.999Z,100366.98
2019-03-12T15:27:23.014Z,100352.19
2019-03-12T15:29:50.769Z,100347.67
2019-03-12T15:32:18.531Z,100341.40
2019-03-12T15:34:46.318Z,100336.63
2019-03-12T15:37:14.138Z,100330.57
2019-03-12T15:39:41.958Z,100329.69
2019-03-12T15:42:09.722Z,100328.17
2019-03-12T15:44:37.505Z,100327.45
2019-03-12T15:47:08.784Z,100315.87
2019-03-12T15:49:34.990Z,100296.61
2019-03-12T15:52:04.305Z,100293.27
2019-03-12T15:54:32.088Z,100292.08
2019-03-12T15:57:00.200Z,100288.52
2019-03-12T15:59:28.003Z,100277.00
2019-03-12T16:01:55.829Z,100278.28
2019-03-12T16:04:23.832Z,100262.12
2019-03-12T16:07:00.846Z,100253.46
2019-03-12T16:09:21.077Z,100242.39
2019-03-12T16:11:48.812Z,100229.83
2019-03-12T16:14:16.638Z,100226.31
2019-03-12T16:16:44.394Z,100216.97
2019-03-12T16:19:12.187Z,100207.91
2019-03-12T16:21:40.587Z,100198.28
2019-03-12T16:24:08.459Z,100190.11
2019-03-12T16:26:36.293Z,100180.18
2019-03-12T16:29:04.300Z,100176.87
2019-03-12T16:31:32.065Z,100161.47
2019-03-12T16:33:59.824Z,100150.01
2019-03-12T16:36:27.569Z,100143.16
2019-03-12T16:38:55.651Z,100130.04
2019-03-12T16:41:23.391Z,100120.30
2019-03-12T16:43:51.153Z,100111.19
2019-03-12T16:46:18.931Z,100104.67
2019-03-12T16:48:48.737Z,100094.84
2019-03-12T16:51:16.266Z,100086.62
2019-03-12T16:53:44.009Z,100085.98
2019-03-12T16:56:12.072Z,100075.53
2019-03-12T16:58:39.860Z,100072.40
2019-03-12T17:01:07.680Z,100074.08
2019-03-12T17:03:35.516Z,100069.64
2019-03-12T17:06:04.089Z,100060.52
2019-03-12T17:08:31.924Z,100054.37
2019-03-12T17:11:02.696Z,100043.31
2019-03-12T17:13:29.302Z,100040.62
2019-03-12T17:15:57.069Z,100029.27
2019-03-12T17:18:24.906Z,100026.20
2019-03-12T17:20:52.671Z,100023.92
2019-03-12T17:23:23.872Z,100022.76
2019-03-12T17:25:52.111Z,100010.30
2019-03-12T17:28:19.897Z,100010.84
2019-03-12T17:30:51.115Z,99969.02
2019-03-12T17:33:21.034Z,99999.56
2019-03-12T17:35:49.333Z,99991.19
2019-03-12T17:38:17.141Z,99989.36
2019-03-12T17:40:44.915Z,99985.52
2019-03-12T17:43:12.685Z,99975.48
2019-03-12T17:45:42.349Z,99974.38
2019-03-12T17:48:13.972Z,99970.91
2019-03-12T17:50:41.740Z,99963.30
2019-03-12T17:58:15.117Z,99953.45
2019-03-12T18:07:17.161Z,99927.52
2019-03-12T18:11:02.754Z,99912.51
2019-03-12T18:12:54.030Z,99765.74
2019-03-12T18:15:30.657Z,99885.15
2019-03-12T18:17:58.500Z,99903.86
2019-03-12T18:20:28.353Z,99889.16
2019-03-12T18:22:56.134Z,99877.59
2019-03-12T18:25:32.148Z,99872.91
2019-03-12T18:28:03.743Z,99844.50
2019-03-12T18:32:16.234Z,99857.61
2019-03-12T18:37:03.831Z,99836.58
2019-03-12T18:39:35.415Z,99836.19
2019-03-12T18:42:03.163Z,99817.78
2019-03-12T18:44:30.935Z,99813.30
2019-03-12T18:46:58.983Z,99817.06
2019-03-12T18:49:26.860Z,99810.54
2019-03-12T18:51:54.602Z,99775.64
2019-03-12T18:54:22.448Z,99782.52
2019-03-12T18:56:50.272Z,99770.20
2019-03-12T18:59:16.878Z,99779.49
2019-03-12T19:02:04.536Z,99624.19
2019-03-12T19:04:34.116Z,99775.34
2019-03-12T19:07:18.422Z,99761.06
2019-03-12T19:09:43.286Z,99753.33
2019-03-12T19:12:11.062Z,99737.31
2019-03-12T19:14:38.865Z,99738.45
2019-03-12T19:17:06.578Z,99727.13
2019-03-12T19:19:35.523Z,99716.17
2019-03-12T19:22:03.283Z,99716.63
2019-03-12T19:24:30.998Z,99702.39
2019-03-12T19:35:18.938Z,99693.47
2019-03-12T19:37:46.723Z,99688.06
2019-03-12T19:40:17.310Z,99677.53
2019-03-12T19:42:47.115Z,99668.55
2019-03-12T19:45:14.478Z,99663.18
2019-03-12T19:47:43.155Z,99660.28
2019-03-12T19:50:11.806Z,99661.20
2019-03-12T19:52:39.521Z,99654.52
2019-03-12T19:55:08.414Z,99659.41
2019-03-12T19:57:36.137Z,99635.08
2019-03-12T20:00:04.189Z,99627.26
2019-03-12T20:02:31.902Z,99630.73
2019-03-12T20:04:59.665Z,99628.03
2019-03-12T20:07:27.419Z,99598.36
2019-03-12T20:10:08.395Z,99613.28
2019-03-12T20:12:53.479Z,99606.25
2019-03-12T20:15:37.730Z,99588.73
2019-03-12T20:18:15.123Z,99572.58
2019-03-12T20:20:58.903Z,99557.02
2019-03-12T20:23:35.939Z,99540.25
2019-03-12T20:26:28.427Z,99539.02
2019-03-12T20:29:21.107Z,99530.59
2019-03-12T20:32:06.814Z,99519.31
2019-03-12T20:34:52.551Z,99514.46
2019-03-12T20:37:38.697Z,99509.40
2019-03-12T20:40:18.564Z,99519.09
2019-03-12T20:43:04.575Z,99519.16
2019-03-12T20:45:38.789Z,99510.77
2019-03-12T20:48:28.791Z,99509.40
2019-03-12T20:51:12.849Z,99524.55
2019-03-12T20:53:55.488Z,99516.88
2019-03-12T20:56:41.434Z,99518.75
2019-03-12T20:59:28.237Z,99530.23
2019-03-12T21:02:09.982Z,99543.20
2019-03-12T21:04:55.804Z,99516.56
2019-03-12T21:07:41.562Z,99531.77
2019-03-12T21:10:28.577Z,99515.64
2019-03-12T21:13:09.047Z,99506.54
2019-03-12T21:15:57.942Z,99500.41
2019-03-12T21:18:45.167Z,99482.58
2019-03-12T21:21:30.986Z,99478.69
2019-03-12T21:24:18.095Z,99474.01
2019-03-12T21:27:09.994Z,99452.75
2019-03-12T21:29:47.416Z,99473.89
2019-03-12T21:32:15.860Z,99474.69
2019-03-12T21:34:43.663Z,99446.34
2019-03-12T21:37:11.500Z,99431.83
2019-03-12T21:39:39.213Z,99438.83
2019-03-12T21:42:07.246Z,99423.58
2019-03-12T21:44:34.979Z,99412.03
2019-03-12T21:47:03.302Z,99400.97
2019-03-12T21:49:31.054Z,99391.61
2019-03-12T21:51:58.967Z,99384.88
2019-03-12T21:54:27.051Z,99375.00
2019-03-12T21:56:54.913Z,99374.84
2019-03-12T21:59:24.295Z,99372.43
2019-03-12T22:01:56.339Z,99361.60
2019-03-12T22:04:24.663Z,99356.83
2019-03-12T22:06:56.193Z,99337.87
2019-03-12T22:09:27.179Z,99350.92
2019-03-12T22:11:55.125Z,99346.38
2019-03-12T22:14:24.112Z,99344.70
2019-03-12T22:16:54.779Z,99325.94
2019-03-12T22:19:22.509Z,99329.91
2019-03-12T22:22:04.246Z,99329.79
2019-03-12T22:25:02.542Z,99331.81
2019-03-12T22:27:21.070Z,99323.16
2019-03-12T22:29:48.930Z,99319.33
2019-03-12T22:32:17.975Z,99311.55
2019-03-12T22:35:14.470Z,99315.87
2019-03-12T22:37:58.523Z,99289.67
2019-03-12T22:40:28.018Z,99303.24
2019-03-12T22:42:55.980Z,99304.34
2019-03-12T22:45:26.431Z,99288.32
2019-03-12T22:48:01.700Z,99286.64
2019-03-12T22:50:31.979Z,99281.88
2019-03-12T22:52:59.889Z,99293.33
2019-03-12T22:55:27.975Z,99288.09
2019-03-12T23:01:05.883Z,99279.39
2019-03-12T23:03:33.634Z,99274.05
2019-03-12T23:06:01.445Z,99272.28
2019-03-12T23:08:29.167Z,99281.28
2019-03-12T23:10:56.986Z,99274.97
2019-03-12T23:13:24.835Z,99276.94
2019-03-12T23:15:52.663Z,99260.94
2019-03-12T23:18:20.605Z,99268.48
2019-03-12T23:20:48.380Z,99256.70
2019-03-12T23:23:16.169Z,99258.56
2019-03-12T23:26:04.854Z,99247.46
2019-03-12T23:28:32.724Z,99237.02
2019-03-12T23:31:00.503Z,99224.59
2019-03-12T23:33:28.321Z,99219.88
2019-03-12T23:35:56.111Z,99223.84
2019-03-12T23:38:23.941Z,99226.52
2019-03-12T23:40:51.709Z,99223.47
2019-03-12T23:43:19.520Z,99225.30
2019-03-12T23:45:47.713Z,99219.97
2019-03-12T23:48:15.472Z,99224.90
2019-03-12T23:50:43.337Z,99217.16
2019-03-12T23:53:11.144Z,99222.64
2019-03-12T23:55:38.942Z,99216.30
2019-03-12T23:58:24.041Z,99203.15
